Terminal Aerodrome Forecast
Issued by NWS Nashville, TN

Home | Current Version | Previous Version | Text Only | Print | Product List | Glossary On
Versions: 1 2 3 4 5 6 7 8 9 10 11 12 13 14 15 16 17 18 19 20 21
000
FTUS44 KOHX 031700
TAFCSV
TAF
KCSV 031727Z 0318/0418 19008G15KT 5SM BR OVC003
     FM040100 19007KT 4SM -SHRA BR OVC003
     FM040900 22009KT 3SM -RA BR OVC003
     FM041700 32006KT 3SM -RA BR OVC002=

USA.gov is the U.S. government's official web portal to all federal, state and local government web resources and services.